Gilgit Weather



Gilgit's Current Weather

Temprature 12.25o few clouds

few clouds

Rain: 0 %

Min Temprature12.25o
Max Temprature12.25o
Humidity34
Wind Speed0.35 m/h
Sun Rise06:21:17
Sun Set17:11:34
Current Time: 28-Oct-2020 04:06:14
Lat/Lon: 35.92, 74.31




Gilgit's Geo Location



Gilgit's Weather Forecast

Time Overall Temp Min Temp Max Temp Humidity Wind Speed Rain
28-Oct-2020 (Wed)
05:00:00 few clouds 12.500 11.890 12.500 34 0.39 m/h 0 %
08:00:00 few clouds 14.780 14.780 15.240 29 0.38 m/h 0 %
11:00:00 few clouds 17.630 17.630 17.940 23 1.34 m/h 0 %
14:00:00 scattered clouds 19.930 19.930 19.990 20 2.34 m/h 0 %
17:00:00 broken clouds 18.650 18.650 18.650 24 3.25 m/h 0 %
20:00:00 broken clouds 16.600 16.600 16.600 29 2.53 m/h 0 %
23:00:00 broken clouds 15.240 15.240 15.240 31 2.6 m/h 0 %
29-Oct-2020 (Thu)
02:00:00 broken clouds 14.150 14.150 14.150 33 2.4 m/h 0 %
05:00:00 broken clouds 13.240 13.240 13.240 35 2.08 m/h 0 %
08:00:00 overcast clouds 14.620 14.620 14.620 31 2.04 m/h 0 %
11:00:00 overcast clouds 16.890 16.890 16.890 25 3.54 m/h 0 %
14:00:00 overcast clouds 17.180 17.180 17.180 25 3.21 m/h 0 %
17:00:00 broken clouds 13.630 13.630 13.630 35 1.48 m/h 0 %
20:00:00 overcast clouds 12.650 12.650 12.650 39 3.27 m/h 0 %
23:00:00 overcast clouds 11.350 11.350 11.350 42 0.93 m/h 0 %
30-Oct-2020 (Fri)
02:00:00 broken clouds 10.360 10.360 10.360 44 2.22 m/h 0 %
05:00:00 scattered clouds 9.000 9.000 9.000 47 1.69 m/h 0 %
08:00:00 clear sky 10.470 10.470 10.470 41 1.86 m/h 0 %
11:00:00 clear sky 12.720 12.720 12.720 35 1.07 m/h 0 %
14:00:00 clear sky 14.800 14.800 14.800 29 1.43 m/h 0 %
17:00:00 few clouds 13.710 13.710 13.710 32 2.15 m/h 0 %
20:00:00 clear sky 11.590 11.590 11.590 37 2.27 m/h 0 %
23:00:00 clear sky 10.430 10.430 10.430 39 2.03 m/h 0 %
31-Oct-2020 (Sat)
02:00:00 clear sky 9.130 9.130 9.130 40 2.09 m/h 0 %
05:00:00 clear sky 7.940 7.940 7.940 42 2.04 m/h 0 %
08:00:00 clear sky 9.290 9.290 9.290 36 1.96 m/h 0 %
11:00:00 clear sky 12.290 12.290 12.290 30 1.22 m/h 0 %
14:00:00 clear sky 14.700 14.700 14.700 27 1.51 m/h 0 %
17:00:00 clear sky 13.120 13.120 13.120 31 2.19 m/h 0 %
20:00:00 clear sky 11.180 11.180 11.180 36 2.09 m/h 0 %
23:00:00 clear sky 9.940 9.940 9.940 38 1.85 m/h 0 %
01-Nov-2020 (Sun)
02:00:00 clear sky 8.860 8.860 8.860 39 2.04 m/h 0 %
05:00:00 clear sky 7.730 7.730 7.730 40 1.88 m/h 0 %
08:00:00 clear sky 9.660 9.660 9.660 34 1.82 m/h 0 %
11:00:00 clear sky 12.930 12.930 12.930 28 1.22 m/h 0 %
14:00:00 clear sky 15.210 15.210 15.210 25 1.61 m/h 0 %
17:00:00 clear sky 13.480 13.480 13.480 30 1.96 m/h 0 %
20:00:00 clear sky 11.570 11.570 11.570 35 1.9 m/h 0 %
23:00:00 clear sky 10.330 10.330 10.330 36 1.92 m/h 0 %
02-Nov-2020 (Mon)
02:00:00 clear sky 9.300 9.300 9.300 38 1.98 m/h 0 %

Famous Cities (60)